Kea — 9HA2207 — position and weather

sailwx.info

Track history (hours):
 
Tides and Currents Weather Stations Pressure Air Temp Water Temp Dewpoint Dewpoint Depression Visibility Wind Speed Wind Dir Waves Ship Positions

Kea

Last reported at 2014-Dec-15 15:29 UTC. Time now 2014-Dec-18 00:53 UTC.
Position N 01°15' E 104°07'.

Length 225 m; draft 13.1 m.

Type: Cargo ship. MMSI: 248150000.

Date/timePositionNaut miles runAvg speedWind from/ knotsBaromVisibWave heightAir tempDewpointWater temp
2014-Dec-15 15:29N 01°15' E 104°07'8 8.2
2014-Dec-15 14:33N 01°16' E 103°59'2 1.8
2014-Dec-15 13:23N 01°17' E 103°57'0 0.0
2014-Dec-15 12:29N 01°17' E 103°57'0 0.0
2014-Dec-15 11:29N 01°17' E 103°57'0 0.0
2014-Dec-15 09:29N 01°17' E 103°57'0 0.0
2014-Dec-15 08:28N 01°17' E 103°57'0 0.0
2014-Dec-15 06:23N 01°17' E 103°57'0 0.0
2014-Dec-15 05:23N 01°17' E 103°57'0 0.0
2014-Dec-15 04:28N 01°17' E 103°57'0 0.0
2014-Dec-15 03:22N 01°17' E 103°57'0 0.0
2014-Dec-15 02:11N 01°17' E 103°57'0 0.0
2014-Dec-15 01:28N 01°17' E 103°57'0 0.0
2014-Dec-15 00:28N 01°17' E 103°57'1 1.0
2014-Dec-14 23:28N 01°16' E 103°57'6 5.4
2014-Dec-14 22:25N 01°12' E 103°53'8 9.8
2014-Dec-14 21:33N 01°07' E 103°46'  
Track history (hours):
 
Tides and Currents Weather Stations Pressure Air Temp Water Temp Dewpoint Dewpoint Depression Visibility Wind Speed Wind Dir Waves Ship Positions

Kea

Last reported at 2014-Dec-15 15:29 UTC. Time now 2014-Dec-18 00:53 UTC.
Position N 01°15' E 104°07'.

Length 225 m; draft 13.1 m.

Type: Cargo ship. MMSI: 248150000.

Date/timePositionNaut miles runAvg speedWind from/ knotsBaromVisibWave heightAir tempDewpointWater temp
2014-Dec-15 15:29N 01°15' E 104°07'8 8.2
2014-Dec-15 14:33N 01°16' E 103°59'2 1.8
2014-Dec-15 13:23N 01°17' E 103°57'0 0.0
2014-Dec-15 12:29N 01°17' E 103°57'0 0.0
2014-Dec-15 11:29N 01°17' E 103°57'0 0.0
2014-Dec-15 09:29N 01°17' E 103°57'0 0.0
2014-Dec-15 08:28N 01°17' E 103°57'0 0.0
2014-Dec-15 06:23N 01°17' E 103°57'0 0.0
2014-Dec-15 05:23N 01°17' E 103°57'0 0.0
2014-Dec-15 04:28N 01°17' E 103°57'0 0.0
2014-Dec-15 03:22N 01°17' E 103°57'0 0.0
2014-Dec-15 02:11N 01°17' E 103°57'0 0.0
2014-Dec-15 01:28N 01°17' E 103°57'0 0.0
2014-Dec-15 00:28N 01°17' E 103°57'1 1.0
2014-Dec-14 23:28N 01°16' E 103°57'6 5.4
2014-Dec-14 22:25N 01°12' E 103°53'8 9.8
2014-Dec-14 21:33N 01°07' E 103°46'  

Dump ship's entire track history